Time;durP1;ratioP1;P1;durP2;ratioP2;P2;SDS_P1;SDS_P2;PMS_P1;PMS_P2;Temp;Humidity;BMP_temperature;BMP_pressure;BME280_temperature;BME280_humidity;BME280_pressure;Samples;Min_cycle;Max_cycle;Signal;HPM_P1;HPM_P2
2022/04/08 00:02:55;;;;;;;;;;;14.80;75.20;;;;;;10982994;32;20062;-70
2022/04/08 00:08:57;;;;;;;12.55;8.63;;;14.80;75.10;;;;;;10969102;32;19930;-70
2022/04/08 00:14:59;;;;;;;12.02;9.23;;;14.70;74.90;;;;;;10968081;32;20127;-70
2022/04/08 00:21:01;;;;;;;10.38;7.12;;;14.70;74.70;;;;;;10981604;32;20428;-69
2022/04/08 00:27:03;;;;;;;13.23;9.43;;;14.30;75.30;;;;;;10981904;32;20014;-70
2022/04/08 00:33:08;;;;;;;15.70;11.77;;;14.20;75.70;;;;;;10981702;32;20398;-70
2022/04/08 00:39:42;;;;;;;10.85;7.95;;;14.40;75.90;;;;;;10968231;32;20027;-70
2022/04/08 00:45:45;;;;;;;17.12;13.00;;;14.40;75.50;;;;;;10981370;32;20291;-70
2022/04/08 00:51:47;;;;;;;19.45;16.45;;;14.20;75.90;;;;;;10981003;32;20030;-70
2022/04/08 00:57:50;;;;;;;12.50;10.80;;;14.30;75.60;;;;;;10980884;32;20023;-69
2022/04/08 01:03:52;;;;;;;12.07;10.30;;;14.20;75.30;;;;;;10980696;32;20041;-70
2022/04/08 01:09:57;;;;;;;18.10;14.52;;;14.20;75.20;;;;;;10976307;32;20034;-70
2022/04/08 01:15:59;;;;;;;16.30;12.88;;;14.20;75.20;;;;;;11011313;26;20041;-70
2022/04/08 01:22:02;;;;;;;16.90;10.88;;;14.20;75.20;;;;;;11004647;32;20048;-70
2022/04/08 01:28:05;;;;;;;18.08;12.98;;;14.20;75.20;;;;;;11004390;32;20026;-70
2022/04/08 01:34:09;;;;;;;12.55;10.43;;;14.10;75.20;;;;;;11016323;32;20349;-71
2022/04/08 01:40:12;;;;;;;21.05;15.43;;;14.10;75.20;;;;;;11017699;32;20037;-70
2022/04/08 01:46:14;;;;;;;17.40;11.55;;;14.20;75.70;;;;;;11017538;32;20045;-69
2022/04/08 01:52:16;;;;;;;11.20;8.73;;;14.20;75.70;;;;;;11017563;32;20391;-70
2022/04/08 01:58:18;;;;;;;15.98;9.60;;;13.80;75.60;;;;;;11013187;32;20072;-70
2022/04/08 02:04:20;;;;;;;14.02;10.20;;;13.50;76.40;;;;;;11017309;32;20022;-70
2022/04/08 02:10:24;;;;;;;13.88;9.23;;;13.60;76.10;;;;;;11017166;32;20413;-70
2022/04/08 02:16:26;;;;;;;14.05;10.32;;;13.30;76.10;;;;;;11016964;32;20402;-70
2022/04/08 02:22:29;;;;;;;24.70;16.05;;;13.10;76.60;;;;;;11016799;32;20099;-70
2022/04/08 02:28:34;;;;;;;17.83;12.90;;;13.20;76.60;;;;;;11016882;32;20022;-70
2022/04/08 02:34:38;;;;;;;14.50;11.52;;;13.40;76.10;;;;;;11003214;32;20341;-70
2022/04/08 02:40:40;;;;;;;14.50;12.50;;;13.50;75.70;;;;;;11003630;32;20306;-69
2022/04/08 02:46:42;;;;;;;14.10;10.10;;;13.40;75.90;;;;;;11023828;32;20345;-70
2022/04/08 02:52:44;;;;;;;13.80;10.05;;;13.50;75.80;;;;;;11023549;32;20056;-70
2022/04/08 02:58:49;;;;;;;20.77;16.00;;;13.50;76.00;;;;;;11023391;32;20394;-70
2022/04/08 03:04:54;;;;;;;19.90;12.30;;;13.30;76.10;;;;;;11023097;32;20034;-70
2022/04/08 03:11:05;;;;;;;12.70;9.00;;;13.30;76.10;;;;;;11022868;32;20030;-70
2022/04/08 03:17:07;;;;;;;13.13;9.43;;;13.00;76.40;;;;;;11018468;32;20406;-70
2022/04/08 03:23:10;;;;;;;14.10;9.27;;;12.80;76.70;;;;;;11022415;32;20030;-70
2022/04/08 03:29:13;;;;;;;23.90;19.23;;;12.80;76.40;;;;;;11008686;32;20026;-70
2022/04/08 03:35:15;;;;;;;14.45;10.82;;;12.60;77.00;;;;;;11022042;32;20026;-70
2022/04/08 03:41:17;;;;;;;17.70;11.43;;;12.60;76.70;;;;;;11021720;32;20060;-70
2022/04/08 03:47:20;;;;;;;20.70;12.00;;;12.70;77.20;;;;;;11021604;32;20054;-70
2022/04/08 03:53:22;;;;;;;21.60;19.30;;;12.70;76.90;;;;;;11007081;32;20030;-70
2022/04/08 03:59:32;;;;;;;16.02;11.05;;;12.50;77.10;;;;;;11021268;32;20049;-70
2022/04/08 04:05:34;;;;;;;25.05;20.70;;;12.70;77.10;;;;;;11021059;32;20316;-70
2022/04/08 04:11:36;;;;;;;15.57;11.12;;;12.70;76.60;;;;;;11020426;32;20022;-70
2022/04/08 04:17:39;;;;;;;19.83;16.75;;;12.70;76.20;;;;;;11020407;32;20076;-70
2022/04/08 04:23:41;;;;;;;17.33;12.00;;;12.80;76.40;;;;;;11020218;32;20030;-70
2022/04/08 04:29:43;;;;;;;17.30;12.37;;;12.70;76.50;;;;;;11018860;32;20030;-70
2022/04/08 04:35:45;;;;;;;14.55;10.90;;;12.70;76.90;;;;;;11019890;32;20030;-70
2022/04/08 04:41:47;;;;;;;14.98;9.90;;;12.70;77.20;;;;;;11019542;32;20127;-71
2022/04/08 04:47:49;;;;;;;15.52;11.00;;;12.70;76.80;;;;;;11015351;32;20068;-71
2022/04/08 04:53:58;;;;;;;17.15;10.85;;;12.40;76.80;;;;;;11019214;32;20034;-69
2022/04/08 05:00:01;;;;;;;19.98;13.55;;;12.50;76.70;;;;;;11016926;32;20053;-70
2022/04/08 05:06:30;;;;;;;15.75;10.80;;;12.50;76.20;;;;;;11015878;32;20338;-70
2022/04/08 05:12:37;;;;;;;28.30;22.15;;;12.50;76.60;;;;;;11015942;32;20390;-72
2022/04/08 05:18:39;;;;;;;25.45;21.87;;;12.80;76.30;;;;;;11014460;32;20030;-72
2022/04/08 05:24:41;;;;;;;28.45;20.35;;;13.00;75.30;;;;;;11013720;32;20030;-73
2022/04/08 05:30:44;;;;;;;17.17;13.70;;;13.20;74.70;;;;;;11017929;32;20037;-70
2022/04/08 05:36:46;;;;;;;17.10;12.25;;;13.20;74.30;;;;;;11017534;32;20296;-70
2022/04/08 05:42:49;;;;;;;18.02;13.70;;;13.10;74.70;;;;;;11014245;32;20060;-70
2022/04/08 05:48:51;;;;;;;16.42;11.82;;;13.10;75.00;;;;;;11017663;32;20345;-70
2022/04/08 05:54:52;;;;;;;18.12;14.15;;;13.30;74.70;;;;;;11014785;32;20030;-70
2022/04/08 06:00:54;;;;;;;18.23;13.20;;;13.30;74.80;;;;;;11012817;32;20027;-70
2022/04/08 06:06:57;;;;;;;30.60;23.05;;;13.60;75.60;;;;;;11011455;32;20354;-70
2022/04/08 06:13:01;;;;;;;30.23;19.87;;;13.80;75.10;;;;;;11016034;32;20062;-69
2022/04/08 06:19:16;;;;;;;25.88;21.67;;;14.00;74.90;;;;;;10994126;32;20034;-70
2022/04/08 06:25:20;;;;;;;20.50;16.70;;;14.20;74.40;;;;;;10970250;32;20057;-70
2022/04/08 06:31:22;;;;;;;22.42;18.40;;;14.30;74.00;;;;;;10981432;32;20034;-70
2022/04/08 06:37:39;;;;;;;24.05;18.75;;;14.40;74.10;;;;;;10985652;32;20022;-70
2022/04/08 06:43:41;;;;;;;21.67;16.23;;;14.60;73.90;;;;;;10985364;32;20030;-71
2022/04/08 06:50:02;;;;;;;30.00;26.12;;;14.80;73.80;;;;;;10981182;32;20331;-70
2022/04/08 06:56:04;;;;;;;28.08;22.00;;;14.70;73.90;;;;;;10984733;32;20042;-70
2022/04/08 07:02:08;;;;;;;15.50;11.80;;;14.70;74.60;;;;;;11000052;32;20022;-70
2022/04/08 07:08:12;;;;;;;22.10;17.33;;;14.80;74.40;;;;;;10989459;32;20452;-70
2022/04/08 07:14:15;;;;;;;20.58;15.52;;;14.60;74.70;;;;;;10981886;32;20026;-70
2022/04/08 07:20:18;;;;;;;16.27;12.48;;;14.50;75.20;;;;;;10983442;32;20018;-70
2022/04/08 07:26:20;;;;;;;18.50;14.57;;;14.70;74.90;;;;;;10984153;32;20030;-73
2022/04/08 07:32:22;;;;;;;20.85;14.50;;;14.70;75.10;;;;;;10982979;32;20030;-73
2022/04/08 07:38:24;;;;;;;17.27;13.52;;;15.20;74.90;;;;;;10983309;32;20326;-73
2022/04/08 07:44:27;;;;;;;12.73;8.85;;;15.40;74.40;;;;;;10982625;32;20019;-73
2022/04/08 07:50:29;;;;;;;20.75;14.68;;;15.20;74.30;;;;;;10982439;32;20057;-73
2022/04/08 07:56:35;;;;;;;14.80;10.40;;;15.10;74.80;;;;;;10978388;32;20019;-73
2022/04/08 08:02:37;;;;;;;18.25;13.90;;;15.20;75.00;;;;;;10979739;32;20061;-74
2022/04/08 08:08:39;;;;;;;14.38;10.75;;;15.40;74.70;;;;;;10979481;32;20394;-73
2022/04/08 08:14:41;;;;;;;16.55;11.73;;;15.60;74.40;;;;;;10980071;32;20027;-73
2022/04/08 08:20:43;;;;;;;18.40;13.62;;;15.70;74.30;;;;;;10977277;32;20412;-73
2022/04/08 08:26:45;;;;;;;19.62;14.13;;;15.80;73.80;;;;;;10981649;32;20054;-74
2022/04/08 08:32:50;;;;;;;16.37;13.88;;;15.70;74.20;;;;;;10980825;32;20027;-74
2022/04/08 08:38:51;;;;;;;24.58;17.87;;;15.60;74.20;;;;;;10977569;32;20044;-74
2022/04/08 08:44:54;;;;;;;19.90;14.90;;;15.70;74.20;;;;;;10977440;32;20103;-73
2022/04/08 08:51:03;;;;;;;18.45;12.32;;;15.90;74.00;;;;;;10981252;32;20049;-73
2022/04/08 08:57:06;;;;;;;17.83;13.85;;;15.80;74.20;;;;;;10981027;32;20019;-73
2022/04/08 09:03:09;;;;;;;25.08;18.05;;;15.90;74.10;;;;;;10978548;32;20375;-74
2022/04/08 09:09:31;;;;;;;18.83;15.25;;;16.00;74.10;;;;;;10976413;32;20053;-74
2022/04/08 09:15:37;;;;;;;18.48;12.13;;;16.00;73.60;;;;;;10562264;27;12903862;-74
2022/04/08 09:22:32;;;;;;;16.00;12.88;;;16.10;73.70;;;;;;10861663;32;20054;-74
2022/04/08 09:28:41;;;;;;;32.83;22.73;;;16.10;73.70;;;;;;10863067;32;20028;-74
2022/04/08 09:34:44;;;;;;;21.95;14.38;;;16.30;73.40;;;;;;10862046;32;20059;-74
2022/04/08 09:40:47;;;;;;;30.23;22.05;;;16.30;73.40;;;;;;10860166;32;20035;-74
2022/04/08 09:46:50;;;;;;;23.62;18.25;;;16.50;73.40;;;;;;10859324;32;20027;-73
2022/04/08 09:52:53;;;;;;;24.90;14.52;;;16.50;73.20;;;;;;10862807;32;20046;-75
2022/04/08 09:59:05;;;;;;;17.12;13.88;;;16.70;73.20;;;;;;10942702;32;20026;-74
2022/04/08 10:05:09;;;;;;;17.48;9.93;;;16.80;73.20;;;;;;10970526;32;20053;-74
2022/04/08 10:11:21;;;;;;;20.70;16.90;;;17.00;72.60;;;;;;10966495;32;20065;-73
2022/04/08 10:17:23;;;;;;;18.00;16.10;;;17.30;72.30;;;;;;10959400;32;20022;-73
2022/04/08 10:23:38;;;;;;;19.62;16.95;;;17.50;72.30;;;;;;10963590;32;20022;-74
2022/04/08 10:29:40;;;;;;;15.73;13.20;;;17.60;71.40;;;;;;10969707;32;20077;-74
2022/04/08 10:35:53;;;;;;;28.08;19.65;;;17.70;71.20;;;;;;10954426;32;20076;-73
2022/04/08 10:42:03;;;;;;;21.33;15.32;;;17.90;70.20;;;;;;10950280;32;20065;-73
2022/04/08 10:48:31;;;;;;;15.23;12.27;;;18.10;70.10;;;;;;10940622;32;20049;-73
2022/04/08 10:54:34;;;;;;;19.62;16.12;;;18.40;70.00;;;;;;10950503;32;20030;-73
2022/04/08 11:01:27;;;;;;;27.98;17.67;;;18.70;69.00;;;;;;10975547;32;20390;-74
2022/04/08 11:07:47;;;;;;;17.12;12.32;;;19.00;68.30;;;;;;10980652;32;20072;-73
2022/04/08 11:13:56;;;;;;;17.48;12.75;;;19.10;67.50;;;;;;10972433;32;20429;-75
2022/04/08 11:20:09;;;;;;;19.92;12.77;;;19.40;67.70;;;;;;10958126;32;20363;-73
2022/04/08 11:26:13;;;;;;;11.68;8.80;;;19.70;66.80;;;;;;10946889;32;20023;-74
2022/04/08 11:32:14;;;;;;;37.83;18.70;;;19.90;66.00;;;;;;10946411;32;20037;-73
2022/04/08 11:38:22;;;;;;;13.23;10.98;;;20.20;66.10;;;;;;10946252;32;20409;-74
2022/04/08 11:44:25;;;;;;;23.55;12.52;;;20.60;64.90;;;;;;10943437;32;20046;-74
2022/04/08 11:50:28;;;;;;;16.80;12.20;;;20.80;64.00;;;;;;10942588;32;20027;-73
2022/04/08 11:56:30;;;;;;;11.98;8.43;;;20.90;63.80;;;;;;10942066;32;20055;-73
2022/04/08 12:02:32;;;;;;;9.25;6.35;;;20.90;63.60;;;;;;10941129;32;20416;-73
2022/04/08 12:08:35;;;;;;;16.58;13.25;;;21.20;63.40;;;;;;10945231;32;20015;-73
2022/04/08 12:14:41;;;;;;;17.50;9.93;;;21.50;62.70;;;;;;10944281;32;20019;-73
2022/04/08 12:20:44;;;;;;;16.33;9.88;;;21.60;61.40;;;;;;10939422;32;20019;-73
2022/04/08 12:26:50;;;;;;;15.90;10.32;;;21.60;62.10;;;;;;10944414;32;20041;-73
2022/04/08 12:32:53;;;;;;;20.23;11.52;;;21.70;61.10;;;;;;10939082;32;20023;-73
2022/04/08 12:38:55;;;;;;;13.02;8.38;;;21.80;60.80;;;;;;10941264;32;20026;-73
2022/04/08 12:44:57;;;;;;;17.08;12.93;;;22.00;60.70;;;;;;10943806;32;20343;-73
2022/04/08 12:51:00;;;;;;;16.42;9.45;;;22.10;60.20;;;;;;10947850;32;20069;-73
2022/04/08 12:57:02;;;;;;;19.45;7.90;;;22.00;59.60;;;;;;10941433;32;20018;-73
2022/04/08 13:03:05;;;;;;;14.90;10.77;;;22.10;59.80;;;;;;10939034;32;20054;-73
2022/04/08 13:09:07;;;;;;;22.08;15.70;;;22.20;59.60;;;;;;10958776;32;20030;-73
2022/04/08 13:15:10;;;;;;;17.48;11.27;;;21.90;59.40;;;;;;10976599;32;20323;-74
2022/04/08 13:21:12;;;;;;;24.20;17.65;;;21.70;59.40;;;;;;10978009;32;20444;-73
2022/04/08 13:27:14;;;;;;;32.85;21.87;;;21.70;59.20;;;;;;10977548;32;20050;-74
2022/04/08 13:33:17;;;;;;;39.47;24.35;;;21.50;60.70;;;;;;10963288;32;20030;-73
2022/04/08 13:39:23;;;;;;;32.95;23.75;;;21.10;61.30;;;;;;10941627;32;20034;-73
2022/04/08 13:45:33;;;;;;;27.65;22.27;;;20.90;61.80;;;;;;10965652;32;20068;-72
2022/04/08 13:51:37;;;;;;;22.58;17.00;;;20.90;61.90;;;;;;10976931;32;20019;-73
2022/04/08 13:57:40;;;;;;;19.90;12.82;;;21.00;61.60;;;;;;10953611;32;20023;-72
2022/04/08 14:03:42;;;;;;;18.40;10.20;;;21.10;61.40;;;;;;10977064;32;20030;-72
2022/04/08 14:09:49;;;;;;;20.58;14.87;;;21.10;60.90;;;;;;10961740;32;20093;-73
2022/04/08 14:15:51;;;;;;;28.40;13.90;;;21.10;61.00;;;;;;10954413;32;20069;-73
2022/04/08 14:21:53;;;;;;;16.60;12.02;;;21.20;60.50;;;;;;10975082;32;20394;-73
2022/04/08 14:27:57;;;;;;;18.33;12.48;;;21.30;60.50;;;;;;10973408;32;20042;-73
2022/04/08 14:33:59;;;;;;;22.92;11.73;;;21.70;59.50;;;;;;10974125;32;20034;-73
2022/04/08 14:40:01;;;;;;;17.62;11.40;;;21.70;59.40;;;;;;10983338;32;20405;-72
2022/04/08 14:46:03;;;;;;;12.32;7.95;;;21.80;59.50;;;;;;10984178;32;20049;-72
2022/04/08 14:52:06;;;;;;;11.50;6.65;;;22.10;59.00;;;;;;10985865;32;20040;-72
2022/04/08 14:58:10;;;;;;;11.70;6.15;;;22.30;58.30;;;;;;10984339;32;20044;-72
2022/04/08 15:04:12;;;;;;;15.20;7.15;;;22.40;58.00;;;;;;10980756;32;20401;-73
2022/04/08 15:10:15;;;;;;;8.35;5.10;;;22.50;57.70;;;;;;10957024;32;20413;-73
2022/04/08 15:16:17;;;;;;;8.38;5.55;;;21.90;58.20;;;;;;10943928;32;20019;-73
2022/04/08 15:22:19;;;;;;;7.53;4.50;;;21.30;59.30;;;;;;10942812;32;20395;-73
2022/04/08 15:28:21;;;;;;;12.30;5.32;;;21.00;60.30;;;;;;10941737;32;20027;-73
2022/04/08 15:34:23;;;;;;;6.12;3.42;;;20.80;61.00;;;;;;10937002;32;20399;-73
2022/04/08 15:40:36;;;;;;;4.47;2.65;;;20.70;61.30;;;;;;10965669;32;20069;-73
2022/04/08 15:46:38;;;;;;;10.43;4.18;;;20.60;61.70;;;;;;10958156;32;20030;-73
2022/04/08 15:52:41;;;;;;;5.00;3.55;;;20.50;62.00;;;;;;10972153;32;20070;-73
2022/04/08 15:58:43;;;;;;;9.13;4.05;;;20.40;62.10;;;;;;10949610;32;20073;-73
2022/04/08 16:04:45;;;;;;;12.77;3.50;;;20.30;62.10;;;;;;10959151;32;20053;-73
2022/04/08 16:10:50;;;;;;;6.57;3.97;;;20.30;62.30;;;;;;10945046;32;20023;-73
2022/04/08 16:16:52;;;;;;;8.50;4.18;;;20.30;62.40;;;;;;10964547;32;20339;-73
2022/04/08 16:22:54;;;;;;;8.35;3.47;;;20.20;62.60;;;;;;10953868;32;20370;-73
2022/04/08 16:29:02;;;;;;;6.03;3.58;;;20.30;63.00;;;;;;10949200;32;20433;-73
2022/04/08 16:35:11;;;;;;;9.05;3.75;;;20.30;63.00;;;;;;10975914;32;20334;-73
2022/04/08 16:41:29;;;;;;;6.10;2.80;;;20.30;62.80;;;;;;10957165;32;20039;-73
2022/04/08 16:47:31;;;;;;;5.50;3.37;;;20.20;63.10;;;;;;10971310;32;20112;-73
2022/04/08 16:53:33;;;;;;;7.05;3.58;;;20.30;63.50;;;;;;10953642;32;20034;-73
2022/04/08 16:59:38;;;;;;;6.32;2.33;;;20.10;63.50;;;;;;10961011;32;20358;-73
2022/04/08 17:05:41;;;;;;;8.63;3.62;;;20.20;63.90;;;;;;10967086;32;20088;-73
2022/04/08 17:11:43;;;;;;;7.85;3.17;;;20.20;63.90;;;;;;10950423;27;20030;-73
2022/04/08 17:17:45;;;;;;;12.50;3.15;;;20.00;64.10;;;;;;10966670;32;20034;-73
2022/04/08 17:23:50;;;;;;;7.25;2.90;;;19.90;64.30;;;;;;10980480;32;20399;-73
2022/04/08 17:29:52;;;;;;;9.93;3.97;;;19.80;64.60;;;;;;10966304;32;20022;-73
2022/04/08 17:35:53;;;;;;;3.85;2.58;;;19.80;64.80;;;;;;10976487;32;20295;-73
2022/04/08 17:41:57;;;;;;;4.80;2.50;;;19.90;65.10;;;;;;10977299;32;20064;-73
2022/04/08 17:48:00;;;;;;;7.72;3.12;;;20.00;65.10;;;;;;10979688;32;20062;-73
2022/04/08 17:54:05;;;;;;;3.72;2.80;;;19.90;65.10;;;;;;10979724;32;20045;-73
2022/04/08 18:00:07;;;;;;;6.70;3.12;;;19.80;65.30;;;;;;10978565;32;20018;-73
2022/04/08 18:06:11;;;;;;;7.37;3.55;;;19.70;65.20;;;;;;10977789;32;20304;-73
2022/04/08 18:12:13;;;;;;;9.85;4.82;;;19.50;65.70;;;;;;10980082;32;20049;-74
2022/04/08 18:18:15;;;;;;;9.13;4.15;;;19.50;65.90;;;;;;10986648;32;20045;-73
2022/04/08 18:24:19;;;;;;;8.65;3.80;;;19.50;66.00;;;;;;10986381;32;20022;-74
2022/04/08 18:30:21;;;;;;;12.30;6.32;;;19.50;65.90;;;;;;10969385;32;20069;-74
2022/04/08 18:36:24;;;;;;;9.55;5.60;;;19.50;66.10;;;;;;10985679;32;20057;-74
2022/04/08 18:42:27;;;;;;;10.02;5.07;;;19.30;66.30;;;;;;10972093;32;20056;-74
2022/04/08 18:48:29;;;;;;;7.85;4.15;;;19.30;66.40;;;;;;11010846;32;20022;-73
2022/04/08 18:54:32;;;;;;;10.40;5.87;;;19.20;66.60;;;;;;11017867;32;20092;-73
2022/04/08 19:00:34;;;;;;;11.00;5.87;;;19.10;66.80;;;;;;11020079;32;20049;-74
2022/04/08 19:06:36;;;;;;;9.20;5.28;;;19.00;67.00;;;;;;11022684;32;20052;-73
2022/04/08 19:12:39;;;;;;;9.27;5.43;;;19.00;67.00;;;;;;11022801;32;20428;-73
2022/04/08 19:18:43;;;;;;;9.15;5.43;;;18.90;67.20;;;;;;11022575;32;20050;-73
2022/04/08 19:24:45;;;;;;;11.02;6.60;;;18.80;67.30;;;;;;11020143;32;20436;-74
2022/04/08 19:30:47;;;;;;;21.70;14.27;;;18.80;67.30;;;;;;11020722;32;20026;-74
2022/04/08 19:36:49;;;;;;;11.20;8.38;;;18.50;67.80;;;;;;11018801;32;20018;-74
2022/04/08 19:42:51;;;;;;;19.80;12.18;;;18.40;68.10;;;;;;11019907;32;20054;-74
2022/04/08 19:48:56;;;;;;;11.45;9.05;;;18.40;68.40;;;;;;11021496;32;20041;-73
2022/04/08 19:54:58;;;;;;;20.33;8.80;;;18.30;68.90;;;;;;11021297;32;20311;-73
2022/04/08 20:01:02;;;;;;;11.90;7.25;;;18.30;68.90;;;;;;11021100;32;20341;-74
2022/04/08 20:07:07;;;;;;;20.45;9.70;;;18.60;68.70;;;;;;11016659;32;20045;-74
2022/04/08 20:13:09;;;;;;;13.35;6.97;;;18.70;68.70;;;;;;11020800;32;20018;-74
2022/04/08 20:19:11;;;;;;;17.92;8.45;;;18.80;68.60;;;;;;11016386;32;20163;-74
2022/04/08 20:25:21;;;;;;;9.98;6.12;;;18.70;68.50;;;;;;11020346;32;20034;-74
2022/04/08 20:31:23;;;;;;;11.27;5.72;;;18.60;68.70;;;;;;11020304;32;20057;-74
2022/04/08 20:37:50;;;;;;;12.20;7.45;;;18.60;68.80;;;;;;11019455;32;20018;-74
2022/04/08 20:43:53;;;;;;;15.13;6.18;;;18.50;69.00;;;;;;11019847;32;20030;-70
2022/04/08 20:50:11;;;;;;;10.65;6.28;;;18.40;69.20;;;;;;11019488;32;20026;-70
2022/04/08 20:56:15;;;;;;;9.68;6.60;;;18.30;69.20;;;;;;11005771;32;20023;-70
2022/04/08 21:02:17;;;;;;;14.63;7.07;;;18.30;69.40;;;;;;11017661;32;20379;-70
2022/04/08 21:08:20;;;;;;;7.97;4.47;;;18.30;69.40;;;;;;11014654;32;20437;-71
2022/04/08 21:14:22;;;;;;;14.55;6.43;;;18.20;69.40;;;;;;11015263;32;20050;-70
2022/04/08 21:20:24;;;;;;;9.52;5.25;;;17.80;70.00;;;;;;11018379;32;20311;-71
2022/04/08 21:26:55;;;;;;;8.98;5.12;;;17.60;70.40;;;;;;11018467;32;20034;-71
2022/04/08 21:32:58;;;;;;;8.75;5.05;;;17.50;70.70;;;;;;11018386;32;20311;-71
2022/04/08 21:39:06;;;;;;;15.15;6.68;;;17.30;71.20;;;;;;11018173;32;20018;-70
2022/04/08 21:45:09;;;;;;;10.80;5.97;;;17.50;71.40;;;;;;11017920;32;20034;-71
2022/04/08 21:51:11;;;;;;;13.07;5.90;;;17.70;71.30;;;;;;11017226;32;20393;-70
2022/04/08 21:57:13;;;;;;;11.80;6.68;;;17.70;71.20;;;;;;11004053;32;20390;-70
2022/04/08 22:03:18;;;;;;;12.73;5.93;;;17.60;71.10;;;;;;11003690;32;20014;-71
2022/04/08 22:09:30;;;;;;;8.80;5.62;;;17.60;71.20;;;;;;11012886;32;20048;-70
2022/04/08 22:15:34;;;;;;;19.65;7.75;;;17.50;71.20;;;;;;11015401;32;20420;-71
2022/04/08 22:21:37;;;;;;;11.82;6.25;;;17.50;71.20;;;;;;11017049;32;20026;-71
2022/04/08 22:27:39;;;;;;;8.40;5.20;;;17.60;71.00;;;;;;11017211;32;20019;-71
2022/04/08 22:33:41;;;;;;;13.05;6.62;;;17.60;71.00;;;;;;11017042;32;20588;-71
2022/04/08 22:39:48;;;;;;;15.30;8.43;;;17.60;71.10;;;;;;11012535;32;20018;-71
2022/04/08 22:45:50;;;;;;;10.77;7.43;;;17.60;71.10;;;;;;11012707;32;20045;-70
2022/04/08 22:51:53;;;;;;;19.60;6.18;;;17.50;71.50;;;;;;11014818;32;20027;-73
2022/04/08 22:57:55;;;;;;;11.80;7.47;;;17.50;71.60;;;;;;11017455;32;20022;-73
2022/04/08 23:04:01;;;;;;;16.80;8.43;;;17.40;71.70;;;;;;11020759;32;20029;-73
2022/04/08 23:10:04;;;;;;;9.13;6.30;;;17.30;71.80;;;;;;11023271;32;20024;-74
2022/04/08 23:16:07;;;;;;;9.07;6.18;;;17.20;72.30;;;;;;11023011;32;20180;-74
2022/04/08 23:22:09;;;;;;;14.13;6.78;;;17.10;72.40;;;;;;11022661;32;20038;-73
2022/04/08 23:28:11;;;;;;;10.10;6.30;;;17.00;72.50;;;;;;11022545;32;20180;-73
2022/04/08 23:34:13;;;;;;;15.70;6.65;;;17.00;72.50;;;;;;11021688;32;20056;-73
2022/04/08 23:40:15;;;;;;;8.05;4.90;;;16.80;72.70;;;;;;11008749;32;20015;-73
2022/04/08 23:46:18;;;;;;;7.45;4.55;;;16.70;72.50;;;;;;11017814;32;20053;-73
2022/04/08 23:52:22;;;;;;;6.20;4.75;;;16.70;72.70;;;;;;11021762;32;20018;-73
2022/04/08 23:58:39;;;;;;;7.50;4.18;;;16.80;72.50;;;;;;11017306;32;20341;-73
